sensor_id;sensor_type;location;lat;lon;timestamp;P1;durP1;ratioP1;P2;durP2;ratioP2
66966;SDS011;53900;51.468;-2.586;2022-09-12T00:01:39;10.02;;;5.88;;
66966;SDS011;53900;51.468;-2.586;2022-09-12T00:04:05;8.00;;;5.47;;
66966;SDS011;53900;51.468;-2.586;2022-09-12T00:06:32;12.20;;;4.85;;
66966;SDS011;53900;51.468;-2.586;2022-09-12T00:09:00;7.85;;;4.90;;
66966;SDS011;53900;51.468;-2.586;2022-09-12T00:11:28;12.68;;;5.55;;
66966;SDS011;53900;51.468;-2.586;2022-09-12T00:13:54;7.53;;;4.60;;
66966;SDS011;53900;51.468;-2.586;2022-09-12T00:16:22;5.50;;;4.07;;
66966;SDS011;53900;51.468;-2.586;2022-09-12T00:18:48;7.63;;;5.55;;
66966;SDS011;53900;51.468;-2.586;2022-09-12T00:21:14;8.95;;;5.72;;
66966;SDS011;53900;51.468;-2.586;2022-09-12T00:23:40;7.15;;;5.05;;
66966;SDS011;53900;51.468;-2.586;2022-09-12T00:26:06;9.63;;;4.88;;
66966;SDS011;53900;51.468;-2.586;2022-09-12T00:33:42;8.70;;;5.80;;
66966;SDS011;53900;51.468;-2.586;2022-09-12T00:36:09;14.07;;;6.43;;
66966;SDS011;53900;51.468;-2.586;2022-09-12T00:38:35;11.25;;;6.28;;
66966;SDS011;53900;51.468;-2.586;2022-09-12T00:41:05;6.68;;;5.18;;
66966;SDS011;53900;51.468;-2.586;2022-09-12T00:43:35;10.43;;;6.07;;
66966;SDS011;53900;51.468;-2.586;2022-09-12T00:46:27;10.63;;;6.18;;
66966;SDS011;53900;51.468;-2.586;2022-09-12T00:51:49;11.30;;;6.18;;
66966;SDS011;53900;51.468;-2.586;2022-09-12T00:54:19;9.43;;;5.80;;
66966;SDS011;53900;51.468;-2.586;2022-09-12T00:56:47;11.90;;;5.80;;
66966;SDS011;53900;51.468;-2.586;2022-09-12T00:59:21;10.15;;;6.05;;
66966;SDS011;53900;51.468;-2.586;2022-09-12T01:01:51;14.95;;;6.47;;
66966;SDS011;53900;51.468;-2.586;2022-09-12T01:04:17;12.88;;;6.60;;
66966;SDS011;53900;51.468;-2.586;2022-09-12T01:06:44;10.65;;;5.93;;
66966;SDS011;53900;51.468;-2.586;2022-09-12T01:09:11;10.75;;;6.60;;
66966;SDS011;53900;51.468;-2.586;2022-09-12T01:11:39;12.75;;;6.50;;
66966;SDS011;53900;51.468;-2.586;2022-09-12T01:14:05;9.98;;;6.65;;
66966;SDS011;53900;51.468;-2.586;2022-09-12T01:16:32;11.82;;;5.85;;
66966;SDS011;53900;51.468;-2.586;2022-09-12T01:21:47;10.15;;;6.15;;
66966;SDS011;53900;51.468;-2.586;2022-09-12T01:27:12;11.15;;;6.15;;
66966;SDS011;53900;51.468;-2.586;2022-09-12T01:40:45;13.45;;;6.15;;
66966;SDS011;53900;51.468;-2.586;2022-09-12T01:43:18;10.82;;;6.28;;
66966;SDS011;53900;51.468;-2.586;2022-09-12T01:45:51;9.73;;;5.90;;
66966;SDS011;53900;51.468;-2.586;2022-09-12T01:48:43;11.10;;;6.30;;
66966;SDS011;53900;51.468;-2.586;2022-09-12T01:51:15;9.10;;;5.77;;
66966;SDS011;53900;51.468;-2.586;2022-09-12T01:53:53;12.73;;;6.35;;
66966;SDS011;53900;51.468;-2.586;2022-09-12T01:56:32;8.85;;;5.65;;
66966;SDS011;53900;51.468;-2.586;2022-09-12T01:59:15;8.98;;;5.97;;
66966;SDS011;53900;51.468;-2.586;2022-09-12T02:01:45;7.28;;;4.43;;
66966;SDS011;53900;51.468;-2.586;2022-09-12T02:04:15;7.65;;;5.30;;
66966;SDS011;53900;51.468;-2.586;2022-09-12T02:06:45;6.18;;;4.78;;
66966;SDS011;53900;51.468;-2.586;2022-09-12T02:09:35;13.52;;;5.78;;
66966;SDS011;53900;51.468;-2.586;2022-09-12T02:12:04;7.63;;;5.68;;
66966;SDS011;53900;51.468;-2.586;2022-09-12T02:14:42;11.38;;;5.70;;
66966;SDS011;53900;51.468;-2.586;2022-09-12T02:17:11;7.88;;;5.50;;
66966;SDS011;53900;51.468;-2.586;2022-09-12T02:19:47;9.43;;;5.82;;
66966;SDS011;53900;51.468;-2.586;2022-09-12T02:22:16;8.75;;;5.18;;
66966;SDS011;53900;51.468;-2.586;2022-09-12T02:24:42;12.18;;;6.47;;
66966;SDS011;53900;51.468;-2.586;2022-09-12T02:29:39;10.10;;;6.10;;
66966;SDS011;53900;51.468;-2.586;2022-09-12T02:32:05;6.55;;;5.03;;
66966;SDS011;53900;51.468;-2.586;2022-09-12T02:34:58;8.32;;;5.28;;
66966;SDS011;53900;51.468;-2.586;2022-09-12T02:38:00;8.35;;;5.40;;
66966;SDS011;53900;51.468;-2.586;2022-09-12T02:40:38;8.40;;;4.63;;
66966;SDS011;53900;51.468;-2.586;2022-09-12T02:43:04;10.35;;;5.90;;
66966;SDS011;53900;51.468;-2.586;2022-09-12T02:45:30;10.73;;;5.35;;
66966;SDS011;53900;51.468;-2.586;2022-09-12T02:48:14;8.93;;;5.45;;
66966;SDS011;53900;51.468;-2.586;2022-09-12T02:50:42;6.63;;;4.97;;
66966;SDS011;53900;51.468;-2.586;2022-09-12T02:53:08;9.43;;;4.85;;
66966;SDS011;53900;51.468;-2.586;2022-09-12T02:55:34;8.00;;;5.03;;
66966;SDS011;53900;51.468;-2.586;2022-09-12T02:58:01;9.18;;;5.13;;
66966;SDS011;53900;51.468;-2.586;2022-09-12T03:00:40;7.22;;;4.53;;
66966;SDS011;53900;51.468;-2.586;2022-09-12T03:06:26;7.63;;;5.57;;
66966;SDS011;53900;51.468;-2.586;2022-09-12T03:08:59;8.70;;;4.72;;
66966;SDS011;53900;51.468;-2.586;2022-09-12T03:11:36;7.63;;;4.78;;
66966;SDS011;53900;51.468;-2.586;2022-09-12T03:17:21;6.70;;;4.78;;
66966;SDS011;53900;51.468;-2.586;2022-09-12T03:20:10;11.35;;;4.35;;
66966;SDS011;53900;51.468;-2.586;2022-09-12T03:22:54;8.98;;;4.28;;
66966;SDS011;53900;51.468;-2.586;2022-09-12T03:25:35;8.65;;;4.10;;
66966;SDS011;53900;51.468;-2.586;2022-09-12T03:28:07;9.48;;;4.57;;
66966;SDS011;53900;51.468;-2.586;2022-09-12T03:33:15;9.48;;;4.18;;
66966;SDS011;53900;51.468;-2.586;2022-09-12T03:35:42;7.85;;;3.63;;
66966;SDS011;53900;51.468;-2.586;2022-09-12T03:38:09;6.05;;;3.65;;
66966;SDS011;53900;51.468;-2.586;2022-09-12T03:40:35;8.98;;;3.95;;
66966;SDS011;53900;51.468;-2.586;2022-09-12T03:43:01;8.90;;;4.10;;
66966;SDS011;53900;51.468;-2.586;2022-09-12T03:45:27;6.47;;;4.22;;
66966;SDS011;53900;51.468;-2.586;2022-09-12T03:47:53;9.40;;;4.13;;
66966;SDS011;53900;51.468;-2.586;2022-09-12T03:50:18;7.45;;;3.95;;
66966;SDS011;53900;51.468;-2.586;2022-09-12T03:52:44;4.85;;;4.10;;
66966;SDS011;53900;51.468;-2.586;2022-09-12T03:55:09;6.63;;;3.70;;
66966;SDS011;53900;51.468;-2.586;2022-09-12T03:57:36;5.63;;;3.50;;
66966;SDS011;53900;51.468;-2.586;2022-09-12T04:00:02;9.15;;;3.63;;
66966;SDS011;53900;51.468;-2.586;2022-09-12T04:02:29;7.75;;;3.75;;
66966;SDS011;53900;51.468;-2.586;2022-09-12T04:04:54;5.60;;;3.15;;
66966;SDS011;53900;51.468;-2.586;2022-09-12T04:07:20;7.25;;;3.30;;
66966;SDS011;53900;51.468;-2.586;2022-09-12T04:09:45;8.65;;;3.33;;
66966;SDS011;53900;51.468;-2.586;2022-09-12T04:12:11;11.13;;;3.55;;
66966;SDS011;53900;51.468;-2.586;2022-09-12T04:14:37;5.88;;;3.40;;
66966;SDS011;53900;51.468;-2.586;2022-09-12T04:17:03;6.78;;;3.75;;
66966;SDS011;53900;51.468;-2.586;2022-09-12T04:19:29;5.88;;;3.63;;
66966;SDS011;53900;51.468;-2.586;2022-09-12T04:21:54;4.75;;;2.83;;
66966;SDS011;53900;51.468;-2.586;2022-09-12T04:24:19;5.05;;;3.28;;
66966;SDS011;53900;51.468;-2.586;2022-09-12T04:26:45;7.03;;;3.53;;
66966;SDS011;53900;51.468;-2.586;2022-09-12T04:29:11;7.57;;;3.40;;
66966;SDS011;53900;51.468;-2.586;2022-09-12T04:31:36;8.38;;;3.30;;
66966;SDS011;53900;51.468;-2.586;2022-09-12T04:34:03;9.20;;;3.35;;
66966;SDS011;53900;51.468;-2.586;2022-09-12T04:36:30;5.78;;;3.33;;
66966;SDS011;53900;51.468;-2.586;2022-09-12T04:38:56;6.35;;;3.50;;
66966;SDS011;53900;51.468;-2.586;2022-09-12T04:41:22;6.13;;;3.60;;
66966;SDS011;53900;51.468;-2.586;2022-09-12T04:43:50;8.43;;;3.72;;
66966;SDS011;53900;51.468;-2.586;2022-09-12T04:46:18;7.53;;;3.90;;
66966;SDS011;53900;51.468;-2.586;2022-09-12T04:48:44;5.45;;;3.50;;
66966;SDS011;53900;51.468;-2.586;2022-09-12T04:56:07;6.50;;;3.85;;
66966;SDS011;53900;51.468;-2.586;2022-09-12T04:58:34;9.30;;;3.65;;
66966;SDS011;53900;51.468;-2.586;2022-09-12T05:01:04;6.35;;;3.60;;
66966;SDS011;53900;51.468;-2.586;2022-09-12T05:03:37;6.35;;;3.88;;
66966;SDS011;53900;51.468;-2.586;2022-09-12T05:06:08;8.30;;;3.83;;
66966;SDS011;53900;51.468;-2.586;2022-09-12T05:08:35;9.30;;;3.83;;
66966;SDS011;53900;51.468;-2.586;2022-09-12T05:11:01;6.20;;;4.10;;
66966;SDS011;53900;51.468;-2.586;2022-09-12T05:13:29;8.05;;;3.90;;
66966;SDS011;53900;51.468;-2.586;2022-09-12T05:15:55;15.13;;;4.40;;
66966;SDS011;53900;51.468;-2.586;2022-09-12T05:18:21;8.30;;;3.65;;
66966;SDS011;53900;51.468;-2.586;2022-09-12T05:20:47;6.75;;;4.15;;
66966;SDS011;53900;51.468;-2.586;2022-09-12T05:23:12;9.38;;;4.38;;
66966;SDS011;53900;51.468;-2.586;2022-09-12T05:25:37;10.70;;;4.60;;
66966;SDS011;53900;51.468;-2.586;2022-09-12T05:28:03;9.00;;;4.38;;
66966;SDS011;53900;51.468;-2.586;2022-09-12T05:30:28;9.65;;;4.65;;
66966;SDS011;53900;51.468;-2.586;2022-09-12T05:32:54;7.78;;;4.47;;
66966;SDS011;53900;51.468;-2.586;2022-09-12T05:35:20;7.18;;;4.45;;
66966;SDS011;53900;51.468;-2.586;2022-09-12T05:37:45;10.55;;;4.65;;
66966;SDS011;53900;51.468;-2.586;2022-09-12T05:40:11;12.07;;;4.85;;
66966;SDS011;53900;51.468;-2.586;2022-09-12T05:42:40;6.95;;;4.38;;
66966;SDS011;53900;51.468;-2.586;2022-09-12T05:45:05;10.90;;;5.38;;
66966;SDS011;53900;51.468;-2.586;2022-09-12T05:47:31;7.63;;;4.72;;
66966;SDS011;53900;51.468;-2.586;2022-09-12T05:49:56;14.73;;;5.38;;
66966;SDS011;53900;51.468;-2.586;2022-09-12T05:52:23;11.02;;;4.93;;
66966;SDS011;53900;51.468;-2.586;2022-09-12T05:54:48;8.13;;;5.20;;
66966;SDS011;53900;51.468;-2.586;2022-09-12T05:57:13;14.80;;;5.20;;
66966;SDS011;53900;51.468;-2.586;2022-09-12T05:59:39;9.25;;;5.40;;
66966;SDS011;53900;51.468;-2.586;2022-09-12T06:02:04;10.35;;;5.30;;
66966;SDS011;53900;51.468;-2.586;2022-09-12T06:04:30;12.35;;;5.25;;
66966;SDS011;53900;51.468;-2.586;2022-09-12T06:06:55;10.35;;;5.60;;
66966;SDS011;53900;51.468;-2.586;2022-09-12T06:09:21;12.35;;;5.03;;
66966;SDS011;53900;51.468;-2.586;2022-09-12T06:11:49;11.50;;;5.47;;
66966;SDS011;53900;51.468;-2.586;2022-09-12T06:14:16;8.55;;;5.03;;
66966;SDS011;53900;51.468;-2.586;2022-09-12T06:16:42;11.10;;;5.00;;
66966;SDS011;53900;51.468;-2.586;2022-09-12T06:19:15;8.60;;;5.30;;
66966;SDS011;53900;51.468;-2.586;2022-09-12T06:21:41;11.65;;;5.60;;
66966;SDS011;53900;51.468;-2.586;2022-09-12T06:24:07;14.15;;;5.40;;
66966;SDS011;53900;51.468;-2.586;2022-09-12T06:26:33;7.60;;;5.07;;
66966;SDS011;53900;51.468;-2.586;2022-09-12T06:28:59;9.02;;;5.13;;
66966;SDS011;53900;51.468;-2.586;2022-09-12T06:31:29;12.15;;;4.68;;
66966;SDS011;53900;51.468;-2.586;2022-09-12T06:33:59;9.57;;;5.18;;
66966;SDS011;53900;51.468;-2.586;2022-09-12T06:36:27;10.73;;;4.82;;
66966;SDS011;53900;51.468;-2.586;2022-09-12T06:39:09;11.88;;;5.20;;
66966;SDS011;53900;51.468;-2.586;2022-09-12T06:41:38;15.30;;;4.85;;
66966;SDS011;53900;51.468;-2.586;2022-09-12T06:44:04;10.07;;;4.65;;
66966;SDS011;53900;51.468;-2.586;2022-09-12T06:46:31;8.57;;;4.82;;
66966;SDS011;53900;51.468;-2.586;2022-09-12T06:48:57;17.58;;;4.60;;
66966;SDS011;53900;51.468;-2.586;2022-09-12T06:51:24;11.13;;;4.22;;
66966;SDS011;53900;51.468;-2.586;2022-09-12T06:53:50;8.30;;;5.10;;
66966;SDS011;53900;51.468;-2.586;2022-09-12T06:56:17;12.50;;;4.90;;
66966;SDS011;53900;51.468;-2.586;2022-09-12T06:58:44;10.88;;;5.07;;
66966;SDS011;53900;51.468;-2.586;2022-09-12T07:01:11;14.23;;;4.90;;
66966;SDS011;53900;51.468;-2.586;2022-09-12T07:03:39;14.95;;;5.10;;
66966;SDS011;53900;51.468;-2.586;2022-09-12T07:06:12;8.52;;;4.70;;
66966;SDS011;53900;51.468;-2.586;2022-09-12T07:08:39;11.10;;;5.60;;
66966;SDS011;53900;51.468;-2.586;2022-09-12T07:13:41;8.10;;;5.30;;
66966;SDS011;53900;51.468;-2.586;2022-09-12T07:16:08;9.77;;;5.20;;
66966;SDS011;53900;51.468;-2.586;2022-09-12T07:18:35;11.75;;;4.75;;
66966;SDS011;53900;51.468;-2.586;2022-09-12T07:21:02;11.77;;;4.90;;
66966;SDS011;53900;51.468;-2.586;2022-09-12T07:23:29;8.98;;;5.22;;
66966;SDS011;53900;51.468;-2.586;2022-09-12T07:25:55;10.10;;;4.88;;
66966;SDS011;53900;51.468;-2.586;2022-09-12T07:28:31;15.20;;;5.32;;
66966;SDS011;53900;51.468;-2.586;2022-09-12T07:30:57;7.22;;;4.72;;
66966;SDS011;53900;51.468;-2.586;2022-09-12T07:33:33;12.73;;;5.57;;
66966;SDS011;53900;51.468;-2.586;2022-09-12T07:36:02;8.85;;;4.95;;
66966;SDS011;53900;51.468;-2.586;2022-09-12T07:38:29;13.52;;;4.82;;
66966;SDS011;53900;51.468;-2.586;2022-09-12T07:40:55;12.05;;;5.47;;
66966;SDS011;53900;51.468;-2.586;2022-09-12T07:43:21;11.00;;;4.97;;
66966;SDS011;53900;51.468;-2.586;2022-09-12T07:45:46;13.88;;;5.10;;
66966;SDS011;53900;51.468;-2.586;2022-09-12T07:48:12;8.93;;;4.88;;
66966;SDS011;53900;51.468;-2.586;2022-09-12T07:50:38;7.93;;;4.75;;
66966;SDS011;53900;51.468;-2.586;2022-09-12T07:53:03;11.13;;;5.40;;
66966;SDS011;53900;51.468;-2.586;2022-09-12T07:55:29;10.88;;;5.28;;
66966;SDS011;53900;51.468;-2.586;2022-09-12T07:57:55;7.35;;;4.03;;
66966;SDS011;53900;51.468;-2.586;2022-09-12T08:00:20;11.88;;;5.38;;
66966;SDS011;53900;51.468;-2.586;2022-09-12T08:02:50;10.88;;;4.68;;
66966;SDS011;53900;51.468;-2.586;2022-09-12T08:05:16;14.93;;;4.95;;
66966;SDS011;53900;51.468;-2.586;2022-09-12T08:07:42;10.82;;;5.38;;
66966;SDS011;53900;51.468;-2.586;2022-09-12T08:10:07;11.77;;;4.80;;
66966;SDS011;53900;51.468;-2.586;2022-09-12T08:12:33;12.63;;;4.70;;
66966;SDS011;53900;51.468;-2.586;2022-09-12T08:14:59;7.63;;;4.15;;
66966;SDS011;53900;51.468;-2.586;2022-09-12T08:17:24;9.77;;;4.90;;
66966;SDS011;53900;51.468;-2.586;2022-09-12T08:19:50;10.35;;;4.40;;
66966;SDS011;53900;51.468;-2.586;2022-09-12T08:22:16;12.85;;;4.82;;
66966;SDS011;53900;51.468;-2.586;2022-09-12T08:24:45;10.40;;;5.22;;
66966;SDS011;53900;51.468;-2.586;2022-09-12T08:27:11;8.70;;;4.15;;
66966;SDS011;53900;51.468;-2.586;2022-09-12T08:29:36;6.85;;;4.35;;
66966;SDS011;53900;51.468;-2.586;2022-09-12T08:32:02;6.10;;;4.40;;
66966;SDS011;53900;51.468;-2.586;2022-09-12T08:34:27;7.88;;;3.85;;
66966;SDS011;53900;51.468;-2.586;2022-09-12T08:36:52;9.25;;;4.22;;
66966;SDS011;53900;51.468;-2.586;2022-09-12T08:39:18;9.85;;;4.13;;
66966;SDS011;53900;51.468;-2.586;2022-09-12T08:41:45;6.00;;;3.83;;
66966;SDS011;53900;51.468;-2.586;2022-09-12T08:46:57;10.77;;;3.90;;
66966;SDS011;53900;51.468;-2.586;2022-09-12T08:57:57;9.38;;;3.72;;
66966;SDS011;53900;51.468;-2.586;2022-09-12T09:00:25;5.82;;;3.22;;
66966;SDS011;53900;51.468;-2.586;2022-09-12T09:05:39;7.07;;;3.33;;
66966;SDS011;53900;51.468;-2.586;2022-09-12T09:16:51;10.73;;;3.47;;
66966;SDS011;53900;51.468;-2.586;2022-09-12T09:19:24;10.00;;;2.65;;
66966;SDS011;53900;51.468;-2.586;2022-09-12T09:22:03;7.57;;;3.28;;
66966;SDS011;53900;51.468;-2.586;2022-09-12T09:24:37;6.20;;;2.70;;
66966;SDS011;53900;51.468;-2.586;2022-09-12T09:27:08;5.53;;;3.13;;
66966;SDS011;53900;51.468;-2.586;2022-09-12T09:29:40;5.03;;;2.40;;
66966;SDS011;53900;51.468;-2.586;2022-09-12T09:32:11;11.50;;;3.30;;
66966;SDS011;53900;51.468;-2.586;2022-09-12T09:34:41;8.73;;;3.20;;
66966;SDS011;53900;51.468;-2.586;2022-09-12T09:37:15;2.08;;;1.88;;
66966;SDS011;53900;51.468;-2.586;2022-09-12T09:42:55;6.10;;;3.15;;
66966;SDS011;53900;51.468;-2.586;2022-09-12T09:45:23;2.58;;;1.92;;
66966;SDS011;53900;51.468;-2.586;2022-09-12T09:50:19;7.28;;;2.92;;
66966;SDS011;53900;51.468;-2.586;2022-09-12T09:52:44;4.80;;;2.75;;
66966;SDS011;53900;51.468;-2.586;2022-09-12T09:55:16;5.65;;;2.92;;
66966;SDS011;53900;51.468;-2.586;2022-09-12T09:57:45;8.07;;;2.72;;
66966;SDS011;53900;51.468;-2.586;2022-09-12T10:05:24;6.07;;;3.37;;
66966;SDS011;53900;51.468;-2.586;2022-09-12T10:07:49;8.27;;;3.40;;
66966;SDS011;53900;51.468;-2.586;2022-09-12T10:10:17;8.63;;;2.58;;
66966;SDS011;53900;51.468;-2.586;2022-09-12T10:12:43;5.05;;;2.90;;
66966;SDS011;53900;51.468;-2.586;2022-09-12T10:15:19;8.15;;;2.70;;
66966;SDS011;53900;51.468;-2.586;2022-09-12T10:17:47;4.88;;;2.15;;
66966;SDS011;53900;51.468;-2.586;2022-09-12T10:20:33;11.23;;;3.35;;
66966;SDS011;53900;51.468;-2.586;2022-09-12T10:23:06;7.15;;;3.00;;
66966;SDS011;53900;51.468;-2.586;2022-09-12T10:25:46;5.63;;;2.75;;
66966;SDS011;53900;51.468;-2.586;2022-09-12T10:28:23;6.00;;;2.67;;
66966;SDS011;53900;51.468;-2.586;2022-09-12T10:30:53;4.90;;;2.10;;
66966;SDS011;53900;51.468;-2.586;2022-09-12T10:33:18;6.40;;;2.50;;
66966;SDS011;53900;51.468;-2.586;2022-09-12T10:35:45;7.03;;;2.50;;
66966;SDS011;53900;51.468;-2.586;2022-09-12T10:38:16;4.20;;;2.00;;
66966;SDS011;53900;51.468;-2.586;2022-09-12T10:41:25;4.30;;;1.73;;
66966;SDS011;53900;51.468;-2.586;2022-09-12T10:43:43;2.25;;;1.60;;
66966;SDS011;53900;51.468;-2.586;2022-09-12T10:48:50;2.15;;;1.80;;
66966;SDS011;53900;51.468;-2.586;2022-09-12T10:53:48;2.15;;;1.60;;
66966;SDS011;53900;51.468;-2.586;2022-09-12T11:06:55;2.53;;;1.20;;
66966;SDS011;53900;51.468;-2.586;2022-09-12T11:12:19;4.47;;;1.27;;
66966;SDS011;53900;51.468;-2.586;2022-09-12T11:28:57;1.90;;;1.15;;
66966;SDS011;53900;51.468;-2.586;2022-09-12T11:34:34;1.13;;;0.85;;
66966;SDS011;53900;51.468;-2.586;2022-09-12T11:37:13;1.95;;;0.80;;
66966;SDS011;53900;51.468;-2.586;2022-09-12T11:39:46;2.90;;;0.85;;
66966;SDS011;53900;51.468;-2.586;2022-09-12T11:42:17;3.55;;;1.30;;
66966;SDS011;53900;51.468;-2.586;2022-09-12T11:44:48;1.67;;;0.90;;
66966;SDS011;53900;51.468;-2.586;2022-09-12T11:47:17;1.35;;;0.90;;
66966;SDS011;53900;51.468;-2.586;2022-09-12T11:52:15;3.90;;;1.33;;
66966;SDS011;53900;51.468;-2.586;2022-09-12T11:54:45;4.20;;;1.10;;
66966;SDS011;53900;51.468;-2.586;2022-09-12T11:59:57;4.43;;;1.10;;
66966;SDS011;53900;51.468;-2.586;2022-09-12T12:02:27;3.80;;;1.20;;
66966;SDS011;53900;51.468;-2.586;2022-09-12T12:07:53;2.30;;;0.90;;
66966;SDS011;53900;51.468;-2.586;2022-09-12T12:13:06;6.85;;;1.20;;
66966;SDS011;53900;51.468;-2.586;2022-09-12T12:15:39;2.00;;;1.02;;
66966;SDS011;53900;51.468;-2.586;2022-09-12T12:18:17;2.20;;;0.90;;
66966;SDS011;53900;51.468;-2.586;2022-09-12T12:20:44;1.38;;;0.90;;
66966;SDS011;53900;51.468;-2.586;2022-09-12T12:23:26;1.33;;;0.90;;
66966;SDS011;53900;51.468;-2.586;2022-09-12T12:25:55;4.20;;;1.20;;
66966;SDS011;53900;51.468;-2.586;2022-09-12T12:31:16;1.88;;;0.90;;
66966;SDS011;53900;51.468;-2.586;2022-09-12T12:36:07;2.40;;;0.85;;
66966;SDS011;53900;51.468;-2.586;2022-09-12T12:38:38;1.73;;;0.93;;
66966;SDS011;53900;51.468;-2.586;2022-09-12T12:43:46;2.10;;;1.00;;
66966;SDS011;53900;51.468;-2.586;2022-09-12T12:46:16;1.15;;;0.80;;
66966;SDS011;53900;51.468;-2.586;2022-09-12T12:48:48;3.03;;;1.10;;
66966;SDS011;53900;51.468;-2.586;2022-09-12T12:51:29;5.53;;;1.27;;
66966;SDS011;53900;51.468;-2.586;2022-09-12T12:53:58;5.90;;;1.50;;
66966;SDS011;53900;51.468;-2.586;2022-09-12T12:56:32;2.92;;;1.40;;
66966;SDS011;53900;51.468;-2.586;2022-09-12T12:59:00;6.80;;;1.33;;
66966;SDS011;53900;51.468;-2.586;2022-09-12T13:01:28;3.17;;;1.05;;
66966;SDS011;53900;51.468;-2.586;2022-09-12T13:06:34;3.55;;;1.17;;
66966;SDS011;53900;51.468;-2.586;2022-09-12T13:09:02;1.25;;;1.08;;
66966;SDS011;53900;51.468;-2.586;2022-09-12T13:11:33;1.80;;;1.13;;
66966;SDS011;53900;51.468;-2.586;2022-09-12T13:14:02;1.92;;;1.08;;
66966;SDS011;53900;51.468;-2.586;2022-09-12T13:19:00;3.17;;;1.27;;
66966;SDS011;53900;51.468;-2.586;2022-09-12T13:21:58;1.95;;;1.00;;
66966;SDS011;53900;51.468;-2.586;2022-09-12T13:24:24;3.10;;;1.02;;
66966;SDS011;53900;51.468;-2.586;2022-09-12T13:26:50;3.70;;;1.20;;
66966;SDS011;53900;51.468;-2.586;2022-09-12T13:31:43;4.07;;;1.52;;
66966;SDS011;53900;51.468;-2.586;2022-09-12T13:34:10;4.95;;;1.23;;
66966;SDS011;53900;51.468;-2.586;2022-09-12T13:39:28;4.35;;;1.48;;
66966;SDS011;53900;51.468;-2.586;2022-09-12T13:44:45;2.47;;;1.30;;
66966;SDS011;53900;51.468;-2.586;2022-09-12T13:47:35;6.57;;;1.23;;
66966;SDS011;53900;51.468;-2.586;2022-09-12T13:50:03;2.22;;;1.52;;
66966;SDS011;53900;51.468;-2.586;2022-09-12T13:52:31;3.53;;;1.50;;
66966;SDS011;53900;51.468;-2.586;2022-09-12T13:54:58;3.45;;;1.45;;
66966;SDS011;53900;51.468;-2.586;2022-09-12T13:57:34;5.07;;;1.55;;
66966;SDS011;53900;51.468;-2.586;2022-09-12T14:00:16;4.30;;;1.67;;
66966;SDS011;53900;51.468;-2.586;2022-09-12T14:02:46;5.60;;;1.55;;
66966;SDS011;53900;51.468;-2.586;2022-09-12T14:05:16;4.32;;;1.48;;
66966;SDS011;53900;51.468;-2.586;2022-09-12T14:10:41;3.50;;;1.45;;
66966;SDS011;53900;51.468;-2.586;2022-09-12T14:13:11;2.38;;;1.42;;
66966;SDS011;53900;51.468;-2.586;2022-09-12T14:15:40;4.65;;;1.70;;
66966;SDS011;53900;51.468;-2.586;2022-09-12T14:18:18;3.58;;;1.30;;
66966;SDS011;53900;51.468;-2.586;2022-09-12T14:21:04;1.63;;;1.00;;
66966;SDS011;53900;51.468;-2.586;2022-09-12T14:23:34;5.07;;;1.60;;
66966;SDS011;53900;51.468;-2.586;2022-09-12T14:26:04;7.93;;;1.58;;
66966;SDS011;53900;51.468;-2.586;2022-09-12T14:28:35;3.35;;;1.50;;
66966;SDS011;53900;51.468;-2.586;2022-09-12T14:33:27;5.70;;;1.65;;
66966;SDS011;53900;51.468;-2.586;2022-09-12T14:36:09;5.35;;;1.85;;
66966;SDS011;53900;51.468;-2.586;2022-09-12T14:38:57;4.63;;;1.70;;
66966;SDS011;53900;51.468;-2.586;2022-09-12T14:41:29;4.63;;;1.48;;
66966;SDS011;53900;51.468;-2.586;2022-09-12T14:43:58;2.35;;;1.30;;
66966;SDS011;53900;51.468;-2.586;2022-09-12T14:46:37;1.70;;;1.20;;
66966;SDS011;53900;51.468;-2.586;2022-09-12T14:51:40;2.70;;;1.27;;
66966;SDS011;53900;51.468;-2.586;2022-09-12T14:54:32;1.88;;;1.15;;
66966;SDS011;53900;51.468;-2.586;2022-09-12T14:56:58;1.88;;;1.20;;
66966;SDS011;53900;51.468;-2.586;2022-09-12T15:04:44;1.60;;;1.40;;
66966;SDS011;53900;51.468;-2.586;2022-09-12T15:09:54;5.53;;;1.70;;
66966;SDS011;53900;51.468;-2.586;2022-09-12T15:12:21;3.92;;;1.48;;
66966;SDS011;53900;51.468;-2.586;2022-09-12T15:14:47;3.03;;;1.40;;
66966;SDS011;53900;51.468;-2.586;2022-09-12T15:17:12;5.15;;;1.27;;
66966;SDS011;53900;51.468;-2.586;2022-09-12T15:19:38;3.33;;;1.65;;
66966;SDS011;53900;51.468;-2.586;2022-09-12T15:22:03;6.68;;;1.30;;
66966;SDS011;53900;51.468;-2.586;2022-09-12T15:24:28;6.22;;;1.58;;
66966;SDS011;53900;51.468;-2.586;2022-09-12T15:26:54;2.67;;;1.23;;
66966;SDS011;53900;51.468;-2.586;2022-09-12T15:29:20;4.97;;;1.77;;
66966;SDS011;53900;51.468;-2.586;2022-09-12T15:31:46;3.92;;;1.65;;
66966;SDS011;53900;51.468;-2.586;2022-09-12T15:34:11;3.08;;;1.70;;
66966;SDS011;53900;51.468;-2.586;2022-09-12T15:36:37;5.97;;;2.00;;
66966;SDS011;53900;51.468;-2.586;2022-09-12T15:39:02;3.92;;;1.50;;
66966;SDS011;53900;51.468;-2.586;2022-09-12T15:41:32;2.70;;;1.30;;
66966;SDS011;53900;51.468;-2.586;2022-09-12T15:44:01;3.65;;;1.83;;
66966;SDS011;53900;51.468;-2.586;2022-09-12T15:46:28;5.60;;;2.00;;
66966;SDS011;53900;51.468;-2.586;2022-09-12T15:48:53;3.28;;;1.70;;
66966;SDS011;53900;51.468;-2.586;2022-09-12T15:51:19;3.05;;;1.70;;
66966;SDS011;53900;51.468;-2.586;2022-09-12T15:53:45;4.80;;;1.80;;
66966;SDS011;53900;51.468;-2.586;2022-09-12T15:56:13;3.50;;;1.75;;
66966;SDS011;53900;51.468;-2.586;2022-09-12T15:58:40;1.30;;;1.15;;
66966;SDS011;53900;51.468;-2.586;2022-09-12T16:01:05;4.20;;;2.03;;
66966;SDS011;53900;51.468;-2.586;2022-09-12T16:03:32;5.22;;;1.50;;
66966;SDS011;53900;51.468;-2.586;2022-09-12T16:05:58;2.00;;;1.30;;
66966;SDS011;53900;51.468;-2.586;2022-09-12T16:08:26;3.97;;;1.70;;
66966;SDS011;53900;51.468;-2.586;2022-09-12T16:10:53;3.65;;;1.63;;
66966;SDS011;53900;51.468;-2.586;2022-09-12T16:13:21;1.88;;;1.33;;
66966;SDS011;53900;51.468;-2.586;2022-09-12T16:15:47;3.83;;;1.40;;
66966;SDS011;53900;51.468;-2.586;2022-09-12T16:18:12;2.63;;;1.40;;
66966;SDS011;53900;51.468;-2.586;2022-09-12T16:20:38;10.30;;;2.15;;
66966;SDS011;53900;51.468;-2.586;2022-09-12T16:23:04;1.77;;;1.23;;
66966;SDS011;53900;51.468;-2.586;2022-09-12T16:25:30;3.65;;;1.77;;
66966;SDS011;53900;51.468;-2.586;2022-09-12T16:27:56;4.60;;;1.50;;
66966;SDS011;53900;51.468;-2.586;2022-09-12T16:30:21;5.88;;;1.70;;
66966;SDS011;53900;51.468;-2.586;2022-09-12T16:32:47;2.80;;;1.50;;
66966;SDS011;53900;51.468;-2.586;2022-09-12T16:35:12;5.43;;;1.88;;
66966;SDS011;53900;51.468;-2.586;2022-09-12T16:37:38;7.30;;;1.80;;
66966;SDS011;53900;51.468;-2.586;2022-09-12T16:40:03;5.13;;;2.05;;
66966;SDS011;53900;51.468;-2.586;2022-09-12T16:42:30;6.35;;;2.10;;
66966;SDS011;53900;51.468;-2.586;2022-09-12T16:44:55;10.68;;;2.05;;
66966;SDS011;53900;51.468;-2.586;2022-09-12T16:47:21;5.28;;;2.08;;
66966;SDS011;53900;51.468;-2.586;2022-09-12T16:49:46;7.10;;;2.42;;
66966;SDS011;53900;51.468;-2.586;2022-09-12T16:52:11;13.30;;;2.70;;
66966;SDS011;53900;51.468;-2.586;2022-09-12T16:54:40;9.20;;;2.03;;
66966;SDS011;53900;51.468;-2.586;2022-09-12T16:57:06;4.72;;;2.15;;
66966;SDS011;53900;51.468;-2.586;2022-09-12T16:59:31;6.95;;;1.83;;
66966;SDS011;53900;51.468;-2.586;2022-09-12T17:01:57;13.10;;;2.30;;
66966;SDS011;53900;51.468;-2.586;2022-09-12T17:04:22;5.38;;;2.13;;
66966;SDS011;53900;51.468;-2.586;2022-09-12T17:06:48;9.20;;;2.00;;
66966;SDS011;53900;51.468;-2.586;2022-09-12T17:09:14;9.68;;;2.50;;
66966;SDS011;53900;51.468;-2.586;2022-09-12T17:11:43;6.83;;;2.60;;
66966;SDS011;53900;51.468;-2.586;2022-09-12T17:14:09;6.50;;;2.50;;
66966;SDS011;53900;51.468;-2.586;2022-09-12T17:16:39;4.47;;;2.03;;
66966;SDS011;53900;51.468;-2.586;2022-09-12T17:19:07;5.60;;;2.20;;
66966;SDS011;53900;51.468;-2.586;2022-09-12T17:21:33;7.55;;;2.63;;
66966;SDS011;53900;51.468;-2.586;2022-09-12T17:23:59;6.97;;;2.42;;